Platteville, WI (53818)

4:12 AM CDT on September 05, 2015 (GMT -0500)
UW-Platteville Campus | | Change Station
CLOSE
Current Station
Personal Weather Station
Location: Platteville, WI
Elevation: 1000 ft
Nearby Weather Stations

Elev 1000 ft 42.73 °N, 90.49 °W | Updated 9 seconds ago

Rain
Rain
73.1 °F
Feels Like 73.1 °F
N
2.0
Wind Variable Wind from ENE
Gusts 6.0 mph

Today
High -- | Low -- °F
--% Chance of Precip.
Yesterday
High -- | Low -- °F
Precip. -- in
6:30 AM 7:29 PM
Waning Gibbous, 50% visible
Pressure 30.05 in
Visibility 3.0 miles
Clouds Clear
Dew Point 72 °F
Humidity 96%
Rainfall 0.01 in
Snow Depth Not available.
UV 0 out of 12
Pollen 8.20 out of 12
Air Quality Not available.
Flu Activity Not available.
METAR KPVB 050855Z AUTO 00000KT 3SM CLR 22/22 A3005 RMK AO1 P0001 60001 T02210217
Pressure 30.05 in
Visibility 3.0 miles
Clouds Clear
Dew Point 72 °F
Humidity 96%
Rainfall 0.01 in
Snow Depth Not available.
UV 0 out of 12
Pollen 8.20 out of 12
Air Quality Not available.
Flu Activity Not available.
METAR KPVB 050855Z AUTO 00000KT 3SM CLR 22/22 A3005 RMK AO1 P0001 60001 T02210217

10-Day Weather Forecast

×

Almanac

Astronomy

Sep. 05, 2015 Rise Set
Actual Time
Civil Twilight
Nautical Twilight
Astronomical Twilight
Moon
Length of Visible Light
Length of Day
Tomorrow will be .
, % of the Moon is Illuminated

Today's Extremes

State Highs State Lows

Community

WunderPhotos

Upload Photos

1,852,440 photos uploaded!

WunderBlogs® & News

Nearby

Air Quality

  Air Quality AQ Index Pollutant
Not available.

Snow Depth

Station Depth Elevation

Earthquake Activity

City Distance Mag. Time & Date
Minimum magnitude displayed is 2.5.

Coastal Water Temperatures

Place Temperature

Stations

Nearby Weather Stations

Station Location Temp. Windchill Dew Point Humidity Wind Precip. Elev Updated Type